Time;durP1;ratioP1;P1;durP2;ratioP2;P2;SDS_P1;SDS_P2;PMS_P1;PMS_P2;Temp;Humidity;BMP_temperature;BMP_pressure;BME280_temperature;BME280_humidity;BME280_pressure;Samples;Min_cycle;Max_cycle;Signal;HPM_P1;HPM_P2
2022/07/09 00:00:07;;;;;;;7.27;4.43;;;22.90;95.60;;;;;;5086504;28;20278;-69
2022/07/09 00:02:34;;;;;;;5.30;4.47;;;22.80;95.50;;;;;;5077532;28;20191;-69
2022/07/09 00:05:01;;;;;;;5.33;4.33;;;22.80;95.60;;;;;;5049072;28;20822;-69
2022/07/09 00:07:27;;;;;;;7.77;5.07;;;22.80;95.60;;;;;;5086537;28;20216;-68
2022/07/09 00:09:54;;;;;;;8.97;4.73;;;22.70;95.60;;;;;;5058432;28;20186;-69
2022/07/09 00:12:20;;;;;;;7.23;4.63;;;22.70;95.70;;;;;;5087937;28;20190;-69
2022/07/09 00:14:47;;;;;;;6.87;4.57;;;22.60;95.80;;;;;;5067356;28;20186;-68
2022/07/09 00:17:13;;;;;;;8.97;4.97;;;22.60;95.80;;;;;;5067276;28;20214;-67
2022/07/09 00:19:40;;;;;;;10.70;5.37;;;22.60;96.00;;;;;;5059436;28;20489;-68
2022/07/09 00:22:06;;;;;;;7.37;4.87;;;22.50;95.90;;;;;;5076615;28;20203;-71
2022/07/09 00:24:32;;;;;;;9.30;4.90;;;22.60;95.90;;;;;;5081729;28;20186;-71
2022/07/09 00:26:58;;;;;;;8.33;4.47;;;22.60;95.90;;;;;;5089189;28;20202;-70
2022/07/09 00:29:25;;;;;;;6.87;4.70;;;22.60;95.90;;;;;;5079970;28;20247;-70
2022/07/09 00:31:52;;;;;;;8.10;4.50;;;22.60;95.90;;;;;;5069644;28;20185;-70
2022/07/09 00:34:18;;;;;;;6.80;4.37;;;22.50;95.90;;;;;;5079183;28;20344;-70
2022/07/09 00:36:45;;;;;;;11.63;4.63;;;22.50;95.90;;;;;;5090316;28;20270;-70
2022/07/09 00:39:11;;;;;;;7.63;4.40;;;22.40;95.90;;;;;;5087793;28;20214;-70
2022/07/09 00:41:37;;;;;;;6.33;4.93;;;22.40;96.00;;;;;;5077516;28;20228;-70
2022/07/09 00:44:04;;;;;;;6.67;4.53;;;22.40;96.10;;;;;;5074450;28;20296;-70
2022/07/09 00:46:30;;;;;;;8.27;4.60;;;22.30;96.00;;;;;;5079215;28;20178;-70
2022/07/09 00:48:56;;;;;;;6.87;4.30;;;22.30;96.10;;;;;;5089701;28;20201;-70
2022/07/09 00:51:23;;;;;;;7.20;4.80;;;22.40;96.20;;;;;;5074613;28;20217;-70
2022/07/09 00:53:50;;;;;;;8.20;5.00;;;22.30;96.10;;;;;;5091158;28;20173;-70
2022/07/09 00:56:17;;;;;;;5.57;4.80;;;22.30;96.20;;;;;;5060311;28;20182;-70
2022/07/09 00:58:46;;;;;;;5.53;4.87;;;22.30;96.20;;;;;;5087569;28;20274;-70
2022/07/09 01:01:12;;;;;;;6.67;5.00;;;22.30;96.20;;;;;;5090691;28;20229;-71
2022/07/09 01:03:38;;;;;;;5.93;4.70;;;22.30;96.20;;;;;;5082880;28;21067;-70
2022/07/09 01:06:05;;;;;;;5.43;4.70;;;22.40;96.20;;;;;;5063901;28;20170;-68
2022/07/09 01:08:31;;;;;;;6.63;4.93;;;22.40;96.30;;;;;;5089206;28;20210;-69
2022/07/09 01:10:59;;;;;;;8.13;4.57;;;22.30;96.30;;;;;;5070988;28;20716;-71
2022/07/09 01:13:26;;;;;;;10.63;5.20;;;22.30;96.50;;;;;;5088542;28;20242;-70
2022/07/09 01:15:52;;;;;;;8.70;4.40;;;22.20;96.60;;;;;;5081625;28;20194;-71
2022/07/09 01:18:19;;;;;;;8.83;4.73;;;22.20;96.70;;;;;;5088763;28;20233;-70
2022/07/09 01:20:45;;;;;;;7.23;5.00;;;22.20;96.80;;;;;;5090400;28;20170;-70
2022/07/09 01:23:11;;;;;;;9.20;4.67;;;22.20;96.90;;;;;;5089564;28;20190;-70
2022/07/09 01:25:41;;;;;;;5.03;4.43;;;22.10;97.00;;;;;;5076575;28;20194;-70
2022/07/09 01:28:09;;;;;;;8.70;4.63;;;22.20;96.90;;;;;;5060148;28;20193;-71
2022/07/09 01:30:38;;;;;;;6.80;4.53;;;22.20;97.00;;;;;;5071321;28;20182;-68
2022/07/09 01:33:05;;;;;;;7.00;4.80;;;22.20;97.10;;;;;;5087067;28;20235;-70
2022/07/09 01:35:32;;;;;;;6.53;4.97;;;22.20;97.10;;;;;;5080559;28;20190;-70
2022/07/09 01:37:58;;;;;;;8.30;4.63;;;22.20;97.20;;;;;;5081143;28;21070;-70
2022/07/09 01:40:26;;;;;;;9.10;5.27;;;22.20;97.30;;;;;;5068542;28;20333;-70
2022/07/09 01:42:54;;;;;;;6.63;4.93;;;22.20;97.50;;;;;;5083387;28;20186;-70
2022/07/09 01:45:20;;;;;;;9.77;5.47;;;22.20;97.60;;;;;;5090066;28;20232;-70
2022/07/09 01:47:47;;;;;;;7.77;4.67;;;22.20;97.60;;;;;;5065012;28;20185;-70
2022/07/09 01:50:13;;;;;;;7.43;5.07;;;22.20;98.10;;;;;;5084827;28;20194;-70
2022/07/09 01:52:40;;;;;;;10.20;4.87;;;22.20;97.80;;;;;;5081425;28;20186;-70
2022/07/09 01:55:07;;;;;;;7.00;4.93;;;22.20;97.80;;;;;;5076680;28;20217;-70
2022/07/09 01:57:33;;;;;;;7.40;5.43;;;22.20;98.00;;;;;;5075757;28;20225;-70
2022/07/09 02:00:00;;;;;;;8.90;5.40;;;22.10;98.10;;;;;;5083578;28;20543;-70
2022/07/09 02:02:26;;;;;;;10.27;5.17;;;22.10;98.20;;;;;;5074899;28;20293;-70
2022/07/09 02:04:52;;;;;;;9.30;4.63;;;22.00;98.20;;;;;;5088148;28;20182;-71
2022/07/09 02:07:19;;;;;;;8.23;4.77;;;21.90;98.20;;;;;;5077832;28;20196;-70
2022/07/09 02:09:45;;;;;;;4.93;4.40;;;21.90;98.20;;;;;;5060286;28;20892;-70
2022/07/09 02:12:11;;;;;;;7.83;4.70;;;22.00;98.30;;;;;;5088562;28;20194;-70
2022/07/09 02:14:38;;;;;;;5.83;4.57;;;22.00;98.40;;;;;;5066003;28;20666;-70
2022/07/09 02:17:04;;;;;;;9.17;5.00;;;21.90;98.40;;;;;;5056637;28;20670;-70
2022/07/09 02:19:31;;;;;;;10.50;4.60;;;21.90;98.40;;;;;;5087218;28;20182;-70
2022/07/09 02:21:57;;;;;;;5.00;4.50;;;21.90;98.50;;;;;;5050613;28;20183;-70
2022/07/09 02:24:23;;;;;;;13.23;4.87;;;21.80;98.50;;;;;;5050920;28;20235;-70
2022/07/09 02:26:50;;;;;;;10.27;4.80;;;21.80;98.60;;;;;;5088351;28;20197;-70
2022/07/09 02:29:17;;;;;;;9.50;5.07;;;21.80;98.80;;;;;;5070967;28;20193;-70
2022/07/09 02:31:43;;;;;;;9.33;4.80;;;21.70;98.90;;;;;;5081046;28;20558;-70
2022/07/09 02:34:09;;;;;;;6.53;4.87;;;21.70;98.90;;;;;;5052946;28;20220;-70
2022/07/09 02:36:36;;;;;;;10.07;4.70;;;21.70;98.90;;;;;;5040929;28;20650;-70
2022/07/09 02:39:03;;;;;;;8.83;4.77;;;21.70;99.00;;;;;;5082648;28;20198;-70
2022/07/09 02:41:30;;;;;;;5.57;4.83;;;21.60;98.80;;;;;;5088811;28;20653;-70
2022/07/09 02:43:56;;;;;;;7.63;4.97;;;21.60;98.90;;;;;;5087903;28;20797;-70
2022/07/09 02:46:22;;;;;;;7.83;5.17;;;21.70;98.90;;;;;;5070080;28;20186;-70
2022/07/09 02:48:49;;;;;;;8.47;4.80;;;21.70;98.90;;;;;;5066830;28;20206;-70
2022/07/09 02:51:15;;;;;;;8.23;4.53;;;21.80;98.90;;;;;;5092399;28;20667;-70
2022/07/09 02:53:41;;;;;;;7.70;5.00;;;21.70;98.70;;;;;;5066517;28;20182;-70
2022/07/09 02:56:07;;;;;;;7.83;4.57;;;21.70;98.40;;;;;;5085969;28;20190;-70
2022/07/09 02:58:33;;;;;;;5.20;4.70;;;21.70;98.20;;;;;;5084055;28;20213;-70
2022/07/09 03:01:00;;;;;;;7.63;4.47;;;21.80;98.10;;;;;;5053620;28;20577;-70
2022/07/09 03:03:27;;;;;;;9.10;4.50;;;21.70;98.10;;;;;;5084780;28;20231;-70
2022/07/09 03:05:53;;;;;;;5.90;4.70;;;21.80;98.10;;;;;;5059788;28;20257;-68
2022/07/09 03:08:21;;;;;;;5.23;4.40;;;21.80;98.00;;;;;;5076592;28;20212;-71
2022/07/09 03:10:49;;;;;;;7.83;4.77;;;21.90;97.50;;;;;;5070068;28;20524;-70
2022/07/09 03:13:16;;;;;;;9.77;4.50;;;22.00;97.30;;;;;;5087264;28;20197;-70
2022/07/09 03:15:42;;;;;;;7.07;4.67;;;22.00;97.00;;;;;;5071240;28;20528;-70
2022/07/09 03:18:09;;;;;;;11.87;4.77;;;22.10;96.70;;;;;;5067457;28;20222;-70
2022/07/09 03:20:36;;;;;;;5.43;4.13;;;22.10;96.60;;;;;;5065699;28;20189;-68
2022/07/09 03:23:04;;;;;;;6.87;4.57;;;22.30;96.00;;;;;;5091972;28;20590;-70
2022/07/09 03:25:31;;;;;;;5.53;4.60;;;22.50;95.60;;;;;;5068377;28;20213;-71
2022/07/09 03:27:58;;;;;;;5.87;3.93;;;22.60;95.40;;;;;;5086242;28;20273;-70
2022/07/09 03:30:25;;;;;;;6.80;4.40;;;22.50;95.70;;;;;;5085399;28;20284;-69
2022/07/09 03:32:51;;;;;;;8.77;4.00;;;22.50;95.60;;;;;;5054745;28;20278;-70
2022/07/09 03:35:18;;;;;;;5.63;3.90;;;22.40;95.00;;;;;;5069603;28;20186;-70
2022/07/09 03:37:45;;;;;;;4.70;3.97;;;22.40;95.10;;;;;;5074233;28;20215;-70
2022/07/09 03:40:12;;;;;;;11.47;3.83;;;22.40;95.00;;;;;;5080033;28;20182;-71
2022/07/09 03:42:38;;;;;;;5.00;3.73;;;22.40;94.90;;;;;;5069368;28;20178;-68
2022/07/09 03:45:05;;;;;;;5.83;4.00;;;22.30;94.80;;;;;;5069000;28;20182;-70
2022/07/09 03:47:35;;;;;;;5.00;3.47;;;22.30;94.90;;;;;;5081690;28;20642;-70
2022/07/09 03:50:03;;;;;;;5.13;3.77;;;22.30;94.90;;;;;;5069567;28;20305;-70
2022/07/09 03:52:29;;;;;;;7.40;3.73;;;22.30;95.10;;;;;;5071268;28;20182;-70
2022/07/09 03:54:55;;;;;;;6.60;3.57;;;22.30;95.50;;;;;;5089257;28;20186;-71
2022/07/09 03:57:21;;;;;;;7.67;3.60;;;22.30;95.70;;;;;;5084319;28;20694;-71
2022/07/09 03:59:48;;;;;;;11.43;4.20;;;22.20;95.90;;;;;;5064273;28;20183;-70
2022/07/09 04:02:14;;;;;;;8.83;4.10;;;22.20;96.20;;;;;;5087071;28;20598;-70
2022/07/09 04:04:43;;;;;;;4.67;3.80;;;22.20;96.30;;;;;;5072435;28;20194;-70
2022/07/09 04:07:10;;;;;;;5.07;3.90;;;22.20;96.40;;;;;;5091426;28;20186;-70
2022/07/09 04:09:37;;;;;;;4.50;3.73;;;22.20;96.60;;;;;;5084467;28;20959;-71
2022/07/09 04:12:03;;;;;;;7.83;3.93;;;22.20;96.50;;;;;;5084348;28;20547;-70
2022/07/09 04:14:30;;;;;;;8.13;4.53;;;22.30;96.80;;;;;;5063677;28;20186;-70
2022/07/09 04:16:56;;;;;;;6.23;4.20;;;22.40;97.30;;;;;;5088889;28;20615;-70
2022/07/09 04:19:22;;;;;;;10.33;4.70;;;22.50;97.90;;;;;;5072465;28;20666;-70
2022/07/09 04:21:50;;;;;;;4.90;4.30;;;22.50;98.20;;;;;;5082772;28;20190;-70
2022/07/09 04:24:16;;;;;;;6.43;4.50;;;22.60;98.50;;;;;;5073373;28;20692;-70
2022/07/09 04:26:43;;;;;;;7.83;4.20;;;22.70;98.80;;;;;;5084789;28;20194;-70
2022/07/09 04:29:10;;;;;;;6.93;4.73;;;22.70;98.90;;;;;;5070619;28;20218;-70
2022/07/09 04:31:36;;;;;;;7.57;4.70;;;22.80;99.30;;;;;;5091492;28;20305;-70
2022/07/09 04:34:03;;;;;;;7.20;4.97;;;22.80;99.90;;;;;;5089737;28;20202;-70
2022/07/09 04:36:29;;;;;;;6.33;4.60;;;22.90;99.80;;;;;;5077214;28;20182;-70
2022/07/09 04:38:56;;;;;;;6.90;4.50;;;23.00;99.90;;;;;;5076955;28;20186;-70
2022/07/09 04:41:22;;;;;;;5.67;5.07;;;23.10;99.90;;;;;;5059510;28;21801;-71
2022/07/09 04:43:49;;;;;;;7.87;5.07;;;23.10;99.90;;;;;;5090875;28;20569;-70
2022/07/09 04:46:16;;;;;;;5.47;4.50;;;23.20;99.90;;;;;;5089813;28;20194;-70
2022/07/09 04:48:43;;;;;;;8.77;5.27;;;23.30;99.90;;;;;;5072654;28;20186;-70
2022/07/09 04:51:09;;;;;;;11.17;5.17;;;23.40;99.90;;;;;;5070270;28;20690;-70
2022/07/09 04:53:35;;;;;;;8.20;4.90;;;23.50;99.90;;;;;;5090978;28;20190;-70
2022/07/09 04:56:01;;;;;;;7.20;4.93;;;23.50;99.90;;;;;;5089038;28;20220;-70
2022/07/09 04:58:32;;;;;;;6.83;5.23;;;23.60;99.90;;;;;;5061723;28;20242;-70
2022/07/09 05:00:59;;;;;;;11.80;5.20;;;23.70;99.90;;;;;;5070351;28;20557;-70
2022/07/09 05:03:25;;;;;;;9.55;5.63;;;23.90;99.90;;;;;;5090240;28;20261;-70
2022/07/09 05:05:52;;;;;;;10.18;5.13;;;23.90;99.90;;;;;;5072886;28;21079;-70
2022/07/09 05:08:19;;;;;;;8.77;4.63;;;23.90;99.90;;;;;;5088314;28;20182;-71
2022/07/09 05:10:45;;;;;;;13.10;4.80;;;23.90;99.90;;;;;;5056637;28;20194;-71
2022/07/09 05:13:12;;;;;;;9.23;5.25;;;24.00;99.90;;;;;;5049055;28;20269;-71
2022/07/09 05:15:38;;;;;;;9.82;5.00;;;24.00;99.90;;;;;;5090958;28;20545;-70
2022/07/09 05:18:04;;;;;;;8.77;4.90;;;24.00;99.90;;;;;;5087200;28;20574;-70
2022/07/09 05:20:31;;;;;;;6.17;4.73;;;24.10;99.90;;;;;;5072916;28;20265;-70
2022/07/09 05:22:57;;;;;;;6.87;4.63;;;24.30;99.70;;;;;;5085451;28;20213;-70
2022/07/09 05:25:23;;;;;;;7.82;4.35;;;24.30;99.60;;;;;;5070840;28;20678;-70
2022/07/09 05:27:49;;;;;;;7.88;4.00;;;24.40;99.20;;;;;;5070838;28;20187;-70
2022/07/09 05:30:16;;;;;;;5.80;4.43;;;24.40;99.00;;;;;;5073538;28;20669;-70
2022/07/09 05:32:43;;;;;;;6.78;4.32;;;24.50;99.10;;;;;;5084848;28;20201;-70
2022/07/09 05:35:10;;;;;;;5.63;4.22;;;24.50;99.60;;;;;;5067467;28;20222;-70
2022/07/09 05:37:43;;;;;;;8.38;4.82;;;24.50;99.40;;;;;;5059489;28;20213;-70
2022/07/09 05:40:11;;;;;;;5.68;4.40;;;24.50;99.40;;;;;;5088461;28;20182;-69
2022/07/09 05:42:39;;;;;;;11.48;4.97;;;24.60;98.90;;;;;;5066422;28;20175;-70
2022/07/09 05:45:06;;;;;;;5.38;3.90;;;24.80;99.00;;;;;;5051226;28;20684;-70
2022/07/09 05:47:32;;;;;;;7.00;4.70;;;24.90;98.50;;;;;;5068452;28;20217;-70
2022/07/09 05:49:59;;;;;;;6.82;4.43;;;25.00;98.50;;;;;;5089497;28;20265;-70
2022/07/09 05:52:27;;;;;;;8.88;4.65;;;25.00;98.60;;;;;;5086894;28;20201;-70
2022/07/09 05:54:53;;;;;;;5.45;4.28;;;25.00;98.70;;;;;;5089909;28;20182;-69
2022/07/09 05:57:19;;;;;;;7.80;4.35;;;25.00;98.50;;;;;;5082231;28;20298;-70
2022/07/09 05:59:49;;;;;;;5.88;4.47;;;25.10;98.00;;;;;;5082271;28;20190;-70
2022/07/09 06:02:15;;;;;;;8.25;4.07;;;25.10;97.30;;;;;;5088739;28;20229;-70
2022/07/09 06:04:42;;;;;;;6.45;4.40;;;25.20;97.40;;;;;;5054088;28;20212;-70
2022/07/09 06:07:09;;;;;;;7.72;3.97;;;25.30;97.50;;;;;;5066755;28;20251;-70
2022/07/09 06:09:35;;;;;;;11.35;4.35;;;25.40;96.80;;;;;;5070008;28;20227;-69
2022/07/09 06:12:02;;;;;;;4.50;3.80;;;25.40;96.40;;;;;;5074051;28;20243;-70
2022/07/09 06:14:29;;;;;;;8.60;3.78;;;25.50;96.20;;;;;;5060848;28;20205;-70
2022/07/09 06:16:55;;;;;;;5.47;4.07;;;25.50;96.00;;;;;;5086993;28;20233;-70
2022/07/09 06:19:23;;;;;;;8.95;4.00;;;25.60;96.80;;;;;;5054297;28;20276;-70
2022/07/09 06:21:49;;;;;;;4.43;3.70;;;25.70;96.40;;;;;;5088729;28;20213;-69
2022/07/09 06:24:16;;;;;;;7.13;3.97;;;25.70;96.20;;;;;;5071097;28;20186;-70
2022/07/09 06:26:42;;;;;;;5.03;3.60;;;25.80;95.60;;;;;;5087983;28;20370;-70
2022/07/09 06:29:08;;;;;;;7.18;4.00;;;25.90;95.50;;;;;;5072384;28;20194;-70
2022/07/09 06:31:34;;;;;;;7.80;3.72;;;25.90;93.90;;;;;;5086179;28;20846;-69
2022/07/09 06:34:02;;;;;;;15.82;4.55;;;26.00;94.10;;;;;;5049570;28;20935;-69
2022/07/09 06:36:29;;;;;;;5.82;4.20;;;26.20;95.00;;;;;;5088003;28;20263;-70
2022/07/09 06:41:40;;;;;;;13.80;4.70;;;26.30;94.00;;;;;;5071134;28;20182;-69
2022/07/09 06:44:07;;;;;;;10.95;3.90;;;26.50;94.20;;;;;;5080221;28;20182;-70
2022/07/09 06:46:35;;;;;;;9.48;3.90;;;26.50;93.50;;;;;;5081204;28;20201;-69
2022/07/09 06:49:03;;;;;;;7.90;3.88;;;26.70;93.40;;;;;;5083366;28;20183;-69
2022/07/09 06:51:29;;;;;;;5.57;3.78;;;26.80;93.00;;;;;;5088318;28;20186;-69
2022/07/09 06:53:55;;;;;;;9.88;3.88;;;26.90;92.70;;;;;;5075498;28;20178;-69
2022/07/09 06:56:22;;;;;;;8.90;3.97;;;26.90;92.60;;;;;;5069079;28;20224;-69
2022/07/09 06:58:49;;;;;;;6.43;3.63;;;27.00;93.10;;;;;;5079025;28;20218;-69
2022/07/09 07:01:15;;;;;;;7.53;3.90;;;27.10;92.90;;;;;;5064252;28;20235;-69
2022/07/09 07:03:42;;;;;;;6.68;3.65;;;27.10;92.80;;;;;;5079642;28;20198;-70
2022/07/09 07:06:08;;;;;;;6.50;3.70;;;27.20;91.90;;;;;;5046229;28;20492;-70
2022/07/09 07:08:34;;;;;;;9.35;4.00;;;27.30;91.60;;;;;;5087794;28;20188;-70
2022/07/09 07:11:01;;;;;;;3.72;3.15;;;27.40;91.50;;;;;;5085025;28;20189;-69
2022/07/09 07:13:27;;;;;;;4.85;3.65;;;27.40;91.60;;;;;;5086504;28;20296;-70
2022/07/09 07:15:53;;;;;;;6.68;3.92;;;27.70;91.90;;;;;;5055415;28;20178;-70
2022/07/09 07:18:19;;;;;;;9.80;3.60;;;27.70;91.00;;;;;;5085807;28;20234;-70
2022/07/09 07:20:46;;;;;;;14.27;4.07;;;27.70;91.80;;;;;;5052476;28;20579;-70
2022/07/09 07:23:15;;;;;;;6.72;4.00;;;27.80;92.30;;;;;;5085835;28;20202;-69
2022/07/09 07:25:41;;;;;;;5.68;4.00;;;27.90;92.80;;;;;;5077294;28;20186;-70
2022/07/09 07:28:07;;;;;;;5.65;3.30;;;27.90;92.20;;;;;;5079778;28;21305;-70
2022/07/09 07:30:35;;;;;;;10.15;4.18;;;28.00;93.10;;;;;;5081037;28;20201;-70
2022/07/09 07:33:01;;;;;;;5.53;4.28;;;28.10;93.10;;;;;;5067890;28;20285;-70
2022/07/09 07:35:28;;;;;;;8.95;4.10;;;28.20;92.90;;;;;;5082157;28;20210;-70
2022/07/09 07:37:54;;;;;;;7.35;3.42;;;28.30;92.30;;;;;;5055717;28;20322;-70
2022/07/09 07:40:20;;;;;;;6.15;4.22;;;28.50;92.60;;;;;;5084615;28;20182;-70
2022/07/09 07:42:47;;;;;;;7.40;3.95;;;28.60;92.40;;;;;;5081907;28;20204;-70
2022/07/09 07:45:13;;;;;;;4.68;4.22;;;28.70;92.30;;;;;;5079685;28;20187;-69
2022/07/09 07:47:39;;;;;;;6.50;3.60;;;28.90;93.00;;;;;;5079235;28;20202;-70
2022/07/09 07:50:07;;;;;;;7.35;3.72;;;29.00;92.30;;;;;;5075825;28;20182;-70
2022/07/09 07:52:33;;;;;;;12.40;3.97;;;29.00;92.50;;;;;;5067024;28;20178;-69
2022/07/09 07:55:01;;;;;;;7.65;3.50;;;29.10;92.50;;;;;;5083309;28;20222;-69
2022/07/09 07:57:27;;;;;;;5.55;3.90;;;29.10;92.20;;;;;;5085877;28;20205;-70
2022/07/09 07:59:53;;;;;;;11.43;3.72;;;29.20;92.30;;;;;;5082863;28;20605;-70
2022/07/09 08:02:20;;;;;;;6.10;3.50;;;29.30;92.20;;;;;;5070859;28;20686;-70
2022/07/09 08:04:49;;;;;;;10.20;3.42;;;29.40;92.00;;;;;;5083622;28;20295;-69
2022/07/09 08:07:16;;;;;;;8.63;3.55;;;29.50;91.50;;;;;;5081007;28;20186;-70
2022/07/09 08:09:42;;;;;;;4.60;3.47;;;29.50;91.80;;;;;;5084268;28;20202;-69
2022/07/09 08:12:09;;;;;;;9.63;3.90;;;29.60;92.00;;;;;;5087532;28;20193;-69
2022/07/09 08:14:35;;;;;;;6.80;3.58;;;29.70;91.80;;;;;;5065942;28;20209;-69
2022/07/09 08:17:02;;;;;;;6.65;3.60;;;29.70;91.90;;;;;;5048033;28;21051;-70
2022/07/09 08:19:28;;;;;;;9.63;3.50;;;29.80;91.80;;;;;;5064937;28;20197;-70
2022/07/09 08:21:54;;;;;;;9.35;3.58;;;30.00;91.30;;;;;;5083619;28;20178;-69
2022/07/09 08:24:21;;;;;;;3.78;3.22;;;30.10;90.40;;;;;;5083846;28;20867;-69
2022/07/09 08:26:47;;;;;;;9.60;3.60;;;30.20;90.20;;;;;;5079044;28;20884;-69
2022/07/09 08:29:13;;;;;;;6.95;3.00;;;30.30;88.00;;;;;;5078731;28;20187;-70
2022/07/09 08:31:40;;;;;;;8.82;3.53;;;30.40;88.20;;;;;;5063648;28;20194;-69
2022/07/09 08:34:06;;;;;;;5.78;3.60;;;30.40;87.50;;;;;;5078875;28;20913;-71
2022/07/09 08:36:32;;;;;;;6.00;3.58;;;30.50;87.70;;;;;;5086417;28;20182;-71
2022/07/09 08:38:58;;;;;;;6.57;3.42;;;30.60;87.20;;;;;;5069941;28;20198;-70
2022/07/09 08:41:25;;;;;;;8.45;3.13;;;30.70;87.80;;;;;;5053439;28;20182;-69
2022/07/09 08:43:53;;;;;;;8.07;3.60;;;30.80;87.50;;;;;;5080118;28;20191;-70
2022/07/09 08:46:21;;;;;;;8.27;3.40;;;30.80;88.20;;;;;;5087895;28;20193;-70
2022/07/09 08:48:49;;;;;;;3.30;3.00;;;31.00;86.10;;;;;;5081421;28;20202;-70
2022/07/09 08:51:17;;;;;;;7.38;3.60;;;31.00;86.60;;;;;;5087134;28;20184;-70
2022/07/09 08:53:54;;;;;;;4.10;3.40;;;31.20;89.70;;;;;;5067004;28;20179;-70
2022/07/09 08:56:21;;;;;;;5.80;3.65;;;31.30;90.10;;;;;;5052651;28;20182;-70
2022/07/09 08:58:48;;;;;;;8.98;3.17;;;31.30;88.10;;;;;;5083185;28;20766;-70
2022/07/09 09:01:20;;;;;;;10.30;3.58;;;31.20;88.30;;;;;;5057607;28;20196;-70
2022/07/09 09:03:47;;;;;;;9.20;3.42;;;31.20;88.70;;;;;;5081217;28;20196;-69
2022/07/09 09:06:14;;;;;;;8.90;3.13;;;31.30;87.00;;;;;;5063855;28;20271;-70
2022/07/09 09:08:45;;;;;;;9.15;3.08;;;31.20;87.10;;;;;;5086421;28;20942;-70
2022/07/09 09:11:24;;;;;;;4.72;3.17;;;31.40;86.00;;;;;;5085667;28;20190;-70
2022/07/09 09:13:53;;;;;;;5.50;3.38;;;31.40;86.80;;;;;;5085465;28;20186;-69
2022/07/09 09:16:22;;;;;;;12.95;3.42;;;31.40;85.20;;;;;;5061892;28;20202;-70
2022/07/09 09:18:51;;;;;;;5.03;3.10;;;31.60;84.90;;;;;;5045537;28;21036;-70
2022/07/09 09:21:22;;;;;;;5.00;3.50;;;31.70;84.40;;;;;;5078775;28;20198;-69
2022/07/09 09:23:55;;;;;;;11.63;3.72;;;31.70;84.10;;;;;;5087904;28;20229;-69
2022/07/09 09:26:22;;;;;;;4.97;3.08;;;31.80;84.40;;;;;;5047957;28;20208;-70
2022/07/09 09:29:07;;;;;;;6.53;3.47;;;31.90;86.20;;;;;;5090549;28;20190;-70
2022/07/09 09:31:36;;;;;;;4.47;3.30;;;32.10;84.80;;;;;;5064041;28;20194;-70
2022/07/09 09:34:09;;;;;;;5.10;3.00;;;32.10;84.60;;;;;;5086443;28;20206;-69
2022/07/09 09:37:00;;;;;;;12.40;3.40;;;32.00;84.40;;;;;;5071670;28;20246;-69
2022/07/09 09:39:29;;;;;;;4.72;3.22;;;32.10;84.70;;;;;;5055300;28;20190;-70
2022/07/09 09:42:02;;;;;;;4.63;2.90;;;32.30;84.80;;;;;;5086565;28;20875;-70
2022/07/09 09:44:40;;;;;;;5.30;2.60;;;32.40;82.40;;;;;;5088777;28;20251;-70
2022/07/09 09:47:07;;;;;;;4.07;2.72;;;32.50;80.70;;;;;;5067424;28;20667;-69
2022/07/09 09:49:37;;;;;;;6.68;3.17;;;32.60;79.60;;;;;;5079424;28;20208;-70
2022/07/09 09:52:07;;;;;;;3.78;2.75;;;32.50;80.00;;;;;;5082295;28;20281;-70
2022/07/09 09:54:36;;;;;;;6.43;2.70;;;32.50;79.70;;;;;;5084002;28;20190;-71
2022/07/09 09:57:13;;;;;;;6.22;3.15;;;32.80;79.10;;;;;;5069681;28;20276;-70
2022/07/09 09:59:42;;;;;;;3.90;2.80;;;32.80;76.70;;;;;;5069719;28;20182;-71
2022/07/09 10:02:10;;;;;;;6.70;3.10;;;32.90;77.40;;;;;;5087746;28;20263;-70
2022/07/09 10:04:42;;;;;;;5.88;2.90;;;33.00;78.50;;;;;;5087295;28;20190;-71
2022/07/09 10:07:14;;;;;;;4.25;2.90;;;32.80;79.00;;;;;;5068734;28;20190;-70
2022/07/09 10:09:51;;;;;;;5.55;3.17;;;32.90;79.10;;;;;;5068093;28;20243;-70
2022/07/09 10:12:30;;;;;;;7.07;3.20;;;32.80;79.60;;;;;;5081013;28;20190;-71
2022/07/09 10:14:57;;;;;;;8.25;3.58;;;33.00;79.20;;;;;;5087240;28;20288;-69
2022/07/09 10:17:26;;;;;;;12.43;2.97;;;33.10;80.20;;;;;;5053039;28;20202;-71
2022/07/09 10:19:58;;;;;;;8.00;3.20;;;33.10;78.20;;;;;;5062376;28;20910;-70
2022/07/09 10:22:43;;;;;;;5.07;2.85;;;33.20;80.10;;;;;;5081370;28;20175;-69
2022/07/09 10:25:27;;;;;;;5.18;2.92;;;33.20;79.60;;;;;;5065401;28;20216;-71
2022/07/09 10:27:54;;;;;;;6.93;3.80;;;33.30;81.30;;;;;;5055872;28;20567;-71
2022/07/09 10:30:31;;;;;;;6.50;3.28;;;33.50;82.50;;;;;;5085146;28;20197;-72
2022/07/09 10:33:05;;;;;;;14.40;3.53;;;33.30;80.70;;;;;;5064557;28;20209;-71
2022/07/09 10:35:39;;;;;;;7.47;3.17;;;33.10;79.50;;;;;;5088487;28;20258;-70
2022/07/09 10:38:06;;;;;;;5.03;2.80;;;33.10;80.20;;;;;;5067308;28;20225;-70
2022/07/09 10:40:40;;;;;;;8.48;3.28;;;33.20;79.50;;;;;;5058442;28;20190;-70
2022/07/09 10:43:07;;;;;;;6.10;2.97;;;33.10;79.20;;;;;;5065855;28;20200;-70
2022/07/09 10:45:45;;;;;;;6.93;3.20;;;33.10;80.20;;;;;;5052433;28;20178;-69
2022/07/09 10:48:15;;;;;;;6.13;3.28;;;33.20;79.40;;;;;;5079031;28;20197;-71
2022/07/09 10:50:45;;;;;;;5.13;3.20;;;33.30;79.30;;;;;;5079690;28;20285;-70
2022/07/09 10:53:12;;;;;;;8.98;3.13;;;33.30;76.70;;;;;;5080446;28;20217;-70
2022/07/09 10:55:46;;;;;;;6.93;3.20;;;33.20;76.70;;;;;;5085283;28;20206;-70
2022/07/09 10:58:20;;;;;;;7.88;3.70;;;33.20;78.60;;;;;;5083217;28;20209;-70
2022/07/09 11:01:06;;;;;;;6.47;3.78;;;33.30;77.70;;;;;;5060404;28;20186;-69
2022/07/09 11:03:32;;;;;;;4.53;3.20;;;33.30;78.00;;;;;;5084016;28;20495;-70
2022/07/09 11:05:59;;;;;;;7.15;3.72;;;33.30;77.50;;;;;;5075443;28;20715;-72
2022/07/09 11:08:25;;;;;;;4.88;3.45;;;33.20;78.30;;;;;;5082803;28;20188;-70
2022/07/09 11:10:52;;;;;;;7.45;4.18;;;33.30;79.20;;;;;;5051681;28;20216;-69
2022/07/09 11:13:28;;;;;;;4.88;3.78;;;33.30;79.60;;;;;;5050101;28;20191;-69
2022/07/09 11:16:01;;;;;;;5.75;4.10;;;33.30;80.50;;;;;;5059443;28;20193;-71
2022/07/09 11:18:29;;;;;;;9.57;4.43;;;33.30;79.60;;;;;;5067316;28;20962;-69
2022/07/09 11:20:56;;;;;;;6.20;4.07;;;33.10;79.40;;;;;;5059160;28;20197;-72
2022/07/09 11:23:22;;;;;;;12.45;4.05;;;32.90;78.90;;;;;;5050586;28;20791;-70
2022/07/09 11:25:48;;;;;;;5.63;4.18;;;32.70;78.80;;;;;;5084048;28;20194;-72
2022/07/09 11:28:24;;;;;;;6.05;3.70;;;32.70;79.50;;;;;;5079491;28;20194;-70
2022/07/09 11:31:05;;;;;;;6.75;3.80;;;32.60;79.00;;;;;;5064679;28;20223;-69
2022/07/09 11:34:15;;;;;;;8.65;4.10;;;32.70;79.40;;;;;;5066322;28;20532;-70
2022/07/09 11:36:22;;;;;;;8.75;4.18;;;32.60;79.40;;;;;;5071084;28;20282;-70
2022/07/09 11:38:51;;;;;;;11.45;4.53;;;32.70;80.20;;;;;;5085133;28;20225;-71
2022/07/09 11:41:18;;;;;;;6.65;4.35;;;32.70;80.90;;;;;;5068421;28;20327;-69
2022/07/09 11:43:51;;;;;;;13.15;4.75;;;32.50;81.70;;;;;;5086460;28;20261;-70
2022/07/09 11:46:21;;;;;;;12.02;4.38;;;32.60;82.20;;;;;;5082684;28;20186;-70
2022/07/09 11:48:55;;;;;;;8.90;4.40;;;32.70;82.00;;;;;;5064701;28;20191;-70
2022/07/09 11:51:43;;;;;;;11.30;4.78;;;32.60;81.90;;;;;;5081981;28;20224;-71
2022/07/09 11:54:10;;;;;;;5.82;4.18;;;32.50;81.70;;;;;;5074525;28;20296;-71
2022/07/09 11:56:47;;;;;;;7.68;4.38;;;32.40;82.40;;;;;;5084632;28;20227;-69
2022/07/09 11:59:26;;;;;;;6.68;4.15;;;32.40;83.40;;;;;;5079256;28;20213;-69
2022/07/09 12:01:52;;;;;;;7.35;4.75;;;32.40;82.30;;;;;;5084726;28;20190;-71
2022/07/09 12:04:20;;;;;;;6.32;4.25;;;32.40;84.10;;;;;;5077102;28;20765;-70
2022/07/09 12:06:51;;;;;;;9.13;4.63;;;32.40;84.00;;;;;;5058427;28;20187;-70
2022/07/09 12:09:31;;;;;;;7.05;4.43;;;32.30;84.20;;;;;;5083870;28;20209;-70
2022/07/09 12:11:59;;;;;;;9.55;4.60;;;32.40;84.70;;;;;;5100265;28;20275;-71
2022/07/09 12:14:26;;;;;;;6.95;4.47;;;32.30;82.50;;;;;;5071647;28;20290;-70
2022/07/09 12:16:52;;;;;;;11.60;4.32;;;32.10;82.50;;;;;;5072042;28;20857;-70
2022/07/09 12:19:19;;;;;;;6.53;4.30;;;32.00;83.80;;;;;;5086283;28;20712;-71
2022/07/09 12:21:47;;;;;;;8.57;4.10;;;32.10;85.10;;;;;;5067632;28;20186;-70
2022/07/09 12:24:13;;;;;;;6.00;4.68;;;32.20;83.20;;;;;;5079179;28;20232;-70
2022/07/09 12:26:39;;;;;;;6.05;4.28;;;32.40;83.40;;;;;;5086075;28;20221;-70
2022/07/09 12:29:06;;;;;;;6.53;4.55;;;32.30;82.40;;;;;;5090052;28;20217;-70
2022/07/09 12:31:32;;;;;;;8.65;4.00;;;32.10;82.30;;;;;;5090105;28;20261;-72
2022/07/09 12:33:59;;;;;;;8.70;3.75;;;32.00;78.60;;;;;;5091129;28;20281;-71
2022/07/09 12:36:27;;;;;;;6.80;3.47;;;32.00;78.70;;;;;;5088708;28;20202;-70
2022/07/09 12:38:56;;;;;;;11.70;4.13;;;32.10;80.00;;;;;;5077537;28;20205;-70
2022/07/09 12:41:23;;;;;;;5.25;4.20;;;32.20;80.00;;;;;;5088552;28;20175;-70
2022/07/09 12:43:50;;;;;;;5.85;3.50;;;32.30;79.00;;;;;;5054500;28;20186;-70
2022/07/09 12:46:20;;;;;;;5.95;4.30;;;32.30;79.20;;;;;;5077570;28;20190;-71
2022/07/09 12:48:48;;;;;;;7.20;4.18;;;32.30;78.70;;;;;;5067774;28;20994;-70
2022/07/09 12:51:14;;;;;;;10.05;4.18;;;32.30;79.40;;;;;;5084787;28;20267;-70